sensor_id;sensor_type;location;lat;lon;timestamp;pressure;altitude;pressure_sealevel;temperature;humidity
57791;BME280;43621;51.798;21.588;2023-05-27T00:03:44;100690.15;;;11.94;46.58
57791;BME280;43621;51.798;21.588;2023-05-27T00:07:46;100695.44;;;11.83;46.63
57791;BME280;43621;51.798;21.588;2023-05-27T00:11:48;100699.84;;;11.74;46.91
57791;BME280;43621;51.798;21.588;2023-05-27T00:15:50;100701.86;;;11.67;47.14
57791;BME280;43621;51.798;21.588;2023-05-27T00:19:52;100705.74;;;11.60;47.33
57791;BME280;43621;51.798;21.588;2023-05-27T00:23:55;100701.20;;;11.52;47.51
57791;BME280;43621;51.798;21.588;2023-05-27T00:27:59;100697.23;;;11.45;47.56
57791;BME280;43621;51.798;21.588;2023-05-27T00:32:02;100696.10;;;11.38;47.82
57791;BME280;43621;51.798;21.588;2023-05-27T00:36:07;100690.65;;;11.30;48.08
57791;BME280;43621;51.798;21.588;2023-05-27T00:40:10;100688.34;;;11.21;48.08
57791;BME280;43621;51.798;21.588;2023-05-27T00:44:12;100688.75;;;11.12;48.38
57791;BME280;43621;51.798;21.588;2023-05-27T00:48:14;100694.25;;;11.07;48.47
57791;BME280;43621;51.798;21.588;2023-05-27T00:52:16;100700.15;;;10.99;48.56
57791;BME280;43621;51.798;21.588;2023-05-27T00:56:17;100707.82;;;10.93;48.84
57791;BME280;43621;51.798;21.588;2023-05-27T01:00:19;100711.42;;;10.89;49.08
57791;BME280;43621;51.798;21.588;2023-05-27T01:04:22;100717.63;;;10.84;49.16
57791;BME280;43621;51.798;21.588;2023-05-27T01:08:43;100717.33;;;10.75;49.16
57791;BME280;43621;51.798;21.588;2023-05-27T01:13:06;100723.30;;;10.66;49.33
57791;BME280;43621;51.798;21.588;2023-05-27T01:17:13;100729.08;;;10.59;49.55
57791;BME280;43621;51.798;21.588;2023-05-27T01:21:17;100731.67;;;10.51;49.72
57791;BME280;43621;51.798;21.588;2023-05-27T01:25:20;100738.63;;;10.42;49.95
57791;BME280;43621;51.798;21.588;2023-05-27T01:29:23;100739.70;;;10.33;50.21
57791;BME280;43621;51.798;21.588;2023-05-27T01:33:29;100741.02;;;10.22;50.44
57791;BME280;43621;51.798;21.588;2023-05-27T01:37:37;100735.54;;;10.12;50.61
57791;BME280;43621;51.798;21.588;2023-05-27T01:41:41;100731.91;;;10.05;50.59
57791;BME280;43621;51.798;21.588;2023-05-27T01:45:44;100730.86;;;9.96;50.73
57791;BME280;43621;51.798;21.588;2023-05-27T01:49:46;100730.56;;;9.86;50.89
57791;BME280;43621;51.798;21.588;2023-05-27T01:53:47;100737.85;;;9.77;51.14
57791;BME280;43621;51.798;21.588;2023-05-27T01:57:49;100739.34;;;9.69;51.37
57791;BME280;43621;51.798;21.588;2023-05-27T02:01:52;100739.81;;;9.58;51.58
57791;BME280;43621;51.798;21.588;2023-05-27T02:05:53;100739.44;;;9.47;51.71
57791;BME280;43621;51.798;21.588;2023-05-27T02:09:55;100743.67;;;9.38;52.03
57791;BME280;43621;51.798;21.588;2023-05-27T02:13:57;100748.55;;;9.30;52.29
57791;BME280;43621;51.798;21.588;2023-05-27T02:18:00;100746.17;;;9.24;52.50
57791;BME280;43621;51.798;21.588;2023-05-27T02:22:02;100746.09;;;9.21;52.63
57791;BME280;43621;51.798;21.588;2023-05-27T02:26:04;100746.69;;;9.18;52.75
57791;BME280;43621;51.798;21.588;2023-05-27T02:30:07;100749.05;;;9.12;52.90
57791;BME280;43621;51.798;21.588;2023-05-27T02:34:09;100751.96;;;9.10;53.19
57791;BME280;43621;51.798;21.588;2023-05-27T02:38:11;100753.13;;;9.08;53.31
57791;BME280;43621;51.798;21.588;2023-05-27T02:42:12;100754.44;;;9.07;53.48
57791;BME280;43621;51.798;21.588;2023-05-27T02:46:14;100759.08;;;9.05;53.61
57791;BME280;43621;51.798;21.588;2023-05-27T02:50:16;100766.46;;;9.04;53.75
57791;BME280;43621;51.798;21.588;2023-05-27T02:54:18;100768.98;;;9.01;53.68
57791;BME280;43621;51.798;21.588;2023-05-27T02:58:20;100770.17;;;8.96;53.84
57791;BME280;43621;51.798;21.588;2023-05-27T03:02:22;100774.65;;;8.94;54.00
57791;BME280;43621;51.798;21.588;2023-05-27T03:06:23;100775.02;;;8.94;54.13
57791;BME280;43621;51.798;21.588;2023-05-27T03:10:25;100781.23;;;8.92;54.26
57791;BME280;43621;51.798;21.588;2023-05-27T03:14:27;100789.23;;;8.93;54.36
57791;BME280;43621;51.798;21.588;2023-05-27T03:18:29;100791.86;;;8.95;54.47
57791;BME280;43621;51.798;21.588;2023-05-27T03:22:30;100793.41;;;9.00;54.64
57791;BME280;43621;51.798;21.588;2023-05-27T03:26:33;100797.39;;;9.03;54.79
57791;BME280;43621;51.798;21.588;2023-05-27T03:30:34;100800.81;;;9.06;54.71
57791;BME280;43621;51.798;21.588;2023-05-27T03:34:39;100802.10;;;9.13;54.97
57791;BME280;43621;51.798;21.588;2023-05-27T03:38:41;100802.36;;;9.16;55.10
57791;BME280;43621;51.798;21.588;2023-05-27T03:42:43;100801.02;;;9.25;55.00
57791;BME280;43621;51.798;21.588;2023-05-27T03:46:45;100801.16;;;9.37;54.98
57791;BME280;43621;51.798;21.588;2023-05-27T03:50:46;100808.91;;;9.46;54.98
57791;BME280;43621;51.798;21.588;2023-05-27T03:54:48;100809.20;;;9.58;55.12
57791;BME280;43621;51.798;21.588;2023-05-27T03:58:50;100809.48;;;9.73;55.08
57791;BME280;43621;51.798;21.588;2023-05-27T04:02:52;100806.30;;;9.83;54.85
57791;BME280;43621;51.798;21.588;2023-05-27T04:06:53;100812.17;;;9.95;55.08
57791;BME280;43621;51.798;21.588;2023-05-27T04:10:57;100811.32;;;10.11;54.90
57791;BME280;43621;51.798;21.588;2023-05-27T04:14:59;100809.73;;;10.25;54.82
57791;BME280;43621;51.798;21.588;2023-05-27T04:19:00;100809.05;;;10.37;54.81
57791;BME280;43621;51.798;21.588;2023-05-27T04:23:02;100804.27;;;10.49;54.72
57791;BME280;43621;51.798;21.588;2023-05-27T04:27:04;100806.23;;;10.64;54.74
57791;BME280;43621;51.798;21.588;2023-05-27T04:31:07;100812.58;;;10.80;54.60
57791;BME280;43621;51.798;21.588;2023-05-27T04:35:13;100812.83;;;10.97;54.57
57791;BME280;43621;51.798;21.588;2023-05-27T04:39:16;100810.99;;;11.18;54.54
57791;BME280;43621;51.798;21.588;2023-05-27T04:43:21;100810.09;;;11.37;54.44
57791;BME280;43621;51.798;21.588;2023-05-27T04:47:24;100812.67;;;11.55;54.24
57791;BME280;43621;51.798;21.588;2023-05-27T04:51:26;100811.55;;;11.77;54.26
57791;BME280;43621;51.798;21.588;2023-05-27T04:55:28;100817.38;;;12.00;53.97
57791;BME280;43621;51.798;21.588;2023-05-27T04:59:29;100818.73;;;12.25;53.83
57791;BME280;43621;51.798;21.588;2023-05-27T05:03:47;100823.73;;;12.48;53.52
57791;BME280;43621;51.798;21.588;2023-05-27T05:07:54;100819.61;;;12.70;53.29
57791;BME280;43621;51.798;21.588;2023-05-27T05:11:55;100820.59;;;12.88;53.05
57791;BME280;43621;51.798;21.588;2023-05-27T05:15:57;100818.08;;;13.05;52.76
57791;BME280;43621;51.798;21.588;2023-05-27T05:19:59;100824.12;;;13.28;52.66
57791;BME280;43621;51.798;21.588;2023-05-27T05:24:01;100828.09;;;13.54;52.47
57791;BME280;43621;51.798;21.588;2023-05-27T05:28:04;100831.13;;;13.76;52.05
57791;BME280;43621;51.798;21.588;2023-05-27T05:32:07;100829.92;;;13.93;51.64
57791;BME280;43621;51.798;21.588;2023-05-27T05:36:09;100829.05;;;14.12;51.44
57791;BME280;43621;51.798;21.588;2023-05-27T05:40:11;100830.02;;;14.30;51.00
57791;BME280;43621;51.798;21.588;2023-05-27T05:44:13;100829.05;;;14.48;50.95
57791;BME280;43621;51.798;21.588;2023-05-27T05:48:15;100834.98;;;14.84;50.85
57791;BME280;43621;51.798;21.588;2023-05-27T05:52:16;100842.27;;;15.17;50.30
57791;BME280;43621;51.798;21.588;2023-05-27T05:56:18;100842.20;;;15.47;49.81
57791;BME280;43621;51.798;21.588;2023-05-27T06:00:21;100848.71;;;15.76;49.26
57791;BME280;43621;51.798;21.588;2023-05-27T06:04:24;100850.86;;;16.00;48.88
57791;BME280;43621;51.798;21.588;2023-05-27T06:08:25;100849.23;;;16.38;48.71
57791;BME280;43621;51.798;21.588;2023-05-27T06:12:27;100847.78;;;16.88;48.55
57791;BME280;43621;51.798;21.588;2023-05-27T06:16:29;100853.14;;;17.38;47.89
57791;BME280;43621;51.798;21.588;2023-05-27T06:20:31;100851.92;;;17.79;47.19
57791;BME280;43621;51.798;21.588;2023-05-27T06:24:33;100847.08;;;18.38;46.94
57791;BME280;43621;51.798;21.588;2023-05-27T06:28:35;100850.58;;;19.58;47.77
57791;BME280;43621;51.798;21.588;2023-05-27T06:32:36;100852.42;;;22.96;43.61
57791;BME280;43621;51.798;21.588;2023-05-27T06:36:38;100853.86;;;26.00;40.47
57791;BME280;43621;51.798;21.588;2023-05-27T06:40:40;100853.50;;;28.52;37.03
57791;BME280;43621;51.798;21.588;2023-05-27T06:44:42;100860.20;;;30.62;34.26
57791;BME280;43621;51.798;21.588;2023-05-27T06:48:44;100859.91;;;31.84;32.61
57791;BME280;43621;51.798;21.588;2023-05-27T06:52:45;100862.49;;;30.71;31.17
57791;BME280;43621;51.798;21.588;2023-05-27T06:56:47;100860.96;;;29.28;31.25
57791;BME280;43621;51.798;21.588;2023-05-27T07:00:49;100861.27;;;28.07;30.86
57791;BME280;43621;51.798;21.588;2023-05-27T07:04:51;100863.86;;;26.80;30.70
57791;BME280;43621;51.798;21.588;2023-05-27T07:08:55;100867.48;;;25.70;31.40
57791;BME280;43621;51.798;21.588;2023-05-27T07:12:57;100869.51;;;25.05;31.80
57791;BME280;43621;51.798;21.588;2023-05-27T07:16:59;100868.20;;;24.43;32.05
57791;BME280;43621;51.798;21.588;2023-05-27T07:21:00;100862.40;;;24.17;32.95
57791;BME280;43621;51.798;21.588;2023-05-27T07:25:03;100858.48;;;24.16;32.78
57791;BME280;43621;51.798;21.588;2023-05-27T07:29:05;100861.14;;;24.08;32.85
57791;BME280;43621;51.798;21.588;2023-05-27T07:33:06;100859.25;;;24.39;33.39
57791;BME280;43621;51.798;21.588;2023-05-27T07:37:08;100859.26;;;25.00;33.23
57791;BME280;43621;51.798;21.588;2023-05-27T07:41:14;100858.39;;;26.02;33.35
57791;BME280;43621;51.798;21.588;2023-05-27T07:45:17;100849.94;;;27.89;32.57
57791;BME280;43621;51.798;21.588;2023-05-27T07:49:21;100850.98;;;30.39;30.24
57791;BME280;43621;51.798;21.588;2023-05-27T07:53:23;100853.69;;;33.27;27.24
57791;BME280;43621;51.798;21.588;2023-05-27T07:57:25;100856.94;;;35.28;23.49
57791;BME280;43621;51.798;21.588;2023-05-27T08:01:27;100855.70;;;36.82;22.54
57791;BME280;43621;51.798;21.588;2023-05-27T08:05:33;100859.67;;;38.37;19.60
57791;BME280;43621;51.798;21.588;2023-05-27T08:09:35;100860.58;;;39.35;18.94
57791;BME280;43621;51.798;21.588;2023-05-27T08:13:37;100857.27;;;40.02;17.90
57791;BME280;43621;51.798;21.588;2023-05-27T08:17:39;100855.23;;;41.42;17.75
57791;BME280;43621;51.798;21.588;2023-05-27T08:21:41;100854.64;;;43.18;16.21
57791;BME280;43621;51.798;21.588;2023-05-27T08:25:43;100853.54;;;44.40;15.32
57791;BME280;43621;51.798;21.588;2023-05-27T08:29:45;100850.01;;;45.50;14.43
57791;BME280;43621;51.798;21.588;2023-05-27T08:33:47;100844.19;;;46.21;13.57
57791;BME280;43621;51.798;21.588;2023-05-27T08:37:49;100845.80;;;46.92;12.85
57791;BME280;43621;51.798;21.588;2023-05-27T08:41:52;100845.85;;;47.21;12.05
57791;BME280;43621;51.798;21.588;2023-05-27T08:45:54;100841.88;;;47.54;11.48
57791;BME280;43621;51.798;21.588;2023-05-27T08:49:56;100837.22;;;47.18;11.46
57791;BME280;43621;51.798;21.588;2023-05-27T08:53:59;100839.24;;;47.58;10.97
57791;BME280;43621;51.798;21.588;2023-05-27T08:58:01;100845.45;;;48.10;11.18
57791;BME280;43621;51.798;21.588;2023-05-27T09:02:11;100839.70;;;49.19;11.05
57791;BME280;43621;51.798;21.588;2023-05-27T09:06:13;100842.77;;;49.74;9.90
57791;BME280;43621;51.798;21.588;2023-05-27T09:10:15;100845.60;;;49.88;9.62
57791;BME280;43621;51.798;21.588;2023-05-27T09:14:23;100837.86;;;50.08;9.65
57791;BME280;43621;51.798;21.588;2023-05-27T09:18:26;100839.17;;;49.92;8.87
57791;BME280;43621;51.798;21.588;2023-05-27T09:22:29;100837.30;;;49.68;8.98
57791;BME280;43621;51.798;21.588;2023-05-27T09:26:33;100835.77;;;49.43;8.45
57791;BME280;43621;51.798;21.588;2023-05-27T09:30:35;100844.36;;;49.98;9.21
57791;BME280;43621;51.798;21.588;2023-05-27T09:34:40;100840.74;;;49.91;8.95
57791;BME280;43621;51.798;21.588;2023-05-27T09:38:42;100835.64;;;50.31;8.62
57791;BME280;43621;51.798;21.588;2023-05-27T09:42:45;100829.45;;;50.23;8.62
57791;BME280;43621;51.798;21.588;2023-05-27T09:46:49;100829.49;;;49.64;8.87
57791;BME280;43621;51.798;21.588;2023-05-27T09:50:54;100830.84;;;48.95;9.18
57791;BME280;43621;51.798;21.588;2023-05-27T09:54:57;100831.77;;;50.04;8.88
57791;BME280;43621;51.798;21.588;2023-05-27T09:58:59;100828.88;;;50.74;8.08
57791;BME280;43621;51.798;21.588;2023-05-27T10:03:02;100836.34;;;50.46;7.93
57791;BME280;43621;51.798;21.588;2023-05-27T10:07:05;100834.07;;;50.24;7.66
57791;BME280;43621;51.798;21.588;2023-05-27T10:11:07;100833.17;;;50.58;7.67
57791;BME280;43621;51.798;21.588;2023-05-27T10:15:09;100835.98;;;50.96;7.20
57791;BME280;43621;51.798;21.588;2023-05-27T10:19:11;100841.54;;;50.77;6.62
57791;BME280;43621;51.798;21.588;2023-05-27T10:23:13;100843.48;;;50.65;6.60
57791;BME280;43621;51.798;21.588;2023-05-27T10:27:17;100841.94;;;50.49;6.58
57791;BME280;43621;51.798;21.588;2023-05-27T10:31:18;100838.27;;;50.10;5.98
57791;BME280;43621;51.798;21.588;2023-05-27T10:35:25;100832.00;;;49.81;6.32
57791;BME280;43621;51.798;21.588;2023-05-27T10:39:29;100832.12;;;49.09;6.03
57791;BME280;43621;51.798;21.588;2023-05-27T10:43:32;100832.05;;;48.94;6.43
57791;BME280;43621;51.798;21.588;2023-05-27T10:47:37;100833.55;;;49.59;6.71
57791;BME280;43621;51.798;21.588;2023-05-27T10:51:39;100829.59;;;49.98;6.08
57791;BME280;43621;51.798;21.588;2023-05-27T10:55:42;100827.54;;;49.89;6.00
57791;BME280;43621;51.798;21.588;2023-05-27T10:59:54;100829.95;;;49.35;5.84
57791;BME280;43621;51.798;21.588;2023-05-27T11:03:59;100835.27;;;48.39;6.11
57791;BME280;43621;51.798;21.588;2023-05-27T11:08:00;100830.34;;;46.73;6.68
57791;BME280;43621;51.798;21.588;2023-05-27T11:12:05;100828.40;;;43.54;7.09
57791;BME280;43621;51.798;21.588;2023-05-27T11:16:07;100824.54;;;40.29;7.97
57791;BME280;43621;51.798;21.588;2023-05-27T11:20:09;100823.63;;;37.42;8.67
57791;BME280;43621;51.798;21.588;2023-05-27T11:24:18;100829.68;;;34.98;9.72
57791;BME280;43621;51.798;21.588;2023-05-27T11:28:21;100824.72;;;32.99;10.47
57791;BME280;43621;51.798;21.588;2023-05-27T11:32:23;100821.45;;;31.37;11.19
57791;BME280;43621;51.798;21.588;2023-05-27T11:36:28;100817.86;;;30.06;11.75
57791;BME280;43621;51.798;21.588;2023-05-27T11:40:35;100803.70;;;29.23;12.47
57791;BME280;43621;51.798;21.588;2023-05-27T11:44:37;100797.16;;;28.30;13.02
57791;BME280;43621;51.798;21.588;2023-05-27T11:48:39;100800.17;;;27.49;13.48
57791;BME280;43621;51.798;21.588;2023-05-27T11:52:54;100803.52;;;27.06;13.97
57791;BME280;43621;51.798;21.588;2023-05-27T11:56:57;100798.23;;;26.64;14.38
57791;BME280;43621;51.798;21.588;2023-05-27T12:01:00;100803.02;;;26.20;14.53
57791;BME280;43621;51.798;21.588;2023-05-27T12:05:02;100795.96;;;25.83;14.69
57791;BME280;43621;51.798;21.588;2023-05-27T12:09:05;100799.11;;;25.59;14.86
57791;BME280;43621;51.798;21.588;2023-05-27T12:13:06;100802.49;;;25.24;15.12
57791;BME280;43621;51.798;21.588;2023-05-27T12:17:08;100804.17;;;25.19;15.31
57791;BME280;43621;51.798;21.588;2023-05-27T12:21:10;100796.05;;;25.12;15.27
57791;BME280;43621;51.798;21.588;2023-05-27T12:25:12;100793.34;;;25.04;15.80
57791;BME280;43621;51.798;21.588;2023-05-27T12:29:14;100792.84;;;24.96;16.07
57791;BME280;43621;51.798;21.588;2023-05-27T12:33:16;100787.08;;;24.91;16.18
57791;BME280;43621;51.798;21.588;2023-05-27T12:37:17;100790.44;;;24.67;16.02
57791;BME280;43621;51.798;21.588;2023-05-27T12:41:19;100782.44;;;24.44;16.42
57791;BME280;43621;51.798;21.588;2023-05-27T12:45:24;100779.28;;;24.18;16.79
57791;BME280;43621;51.798;21.588;2023-05-27T12:49:27;100778.74;;;24.16;16.95
57791;BME280;43621;51.798;21.588;2023-05-27T12:53:29;100772.72;;;24.04;17.12
57791;BME280;43621;51.798;21.588;2023-05-27T12:57:31;100767.67;;;23.99;17.44
57791;BME280;43621;51.798;21.588;2023-05-27T13:01:33;100767.81;;;23.85;17.54
57791;BME280;43621;51.798;21.588;2023-05-27T13:05:35;100763.27;;;23.69;17.90
57791;BME280;43621;51.798;21.588;2023-05-27T13:09:37;100763.44;;;23.65;18.08
57791;BME280;43621;51.798;21.588;2023-05-27T13:13:47;100764.49;;;23.41;18.19
57791;BME280;43621;51.798;21.588;2023-05-27T13:17:50;100761.79;;;23.19;18.57
57791;BME280;43621;51.798;21.588;2023-05-27T13:21:53;100759.08;;;23.17;18.57
57791;BME280;43621;51.798;21.588;2023-05-27T13:25:55;100760.51;;;23.17;18.75
57791;BME280;43621;51.798;21.588;2023-05-27T13:29:56;100751.05;;;23.12;18.82
57791;BME280;43621;51.798;21.588;2023-05-27T13:33:58;100745.13;;;23.04;19.03
57791;BME280;43621;51.798;21.588;2023-05-27T13:38:00;100743.27;;;23.04;19.22
57791;BME280;43621;51.798;21.588;2023-05-27T13:42:02;100737.27;;;23.07;19.23
57791;BME280;43621;51.798;21.588;2023-05-27T13:46:04;100738.66;;;23.02;19.29
57791;BME280;43621;51.798;21.588;2023-05-27T13:50:06;100742.26;;;22.90;19.35
57791;BME280;43621;51.798;21.588;2023-05-27T13:54:08;100740.23;;;22.73;19.41
57791;BME280;43621;51.798;21.588;2023-05-27T13:58:10;100733.61;;;22.51;19.43
57791;BME280;43621;51.798;21.588;2023-05-27T14:02:12;100731.90;;;22.45;19.34
57791;BME280;43621;51.798;21.588;2023-05-27T14:06:13;100731.66;;;22.47;19.63
57791;BME280;43621;51.798;21.588;2023-05-27T14:10:15;100726.47;;;22.44;19.41
57791;BME280;43621;51.798;21.588;2023-05-27T14:14:17;100722.59;;;22.36;19.44
57791;BME280;43621;51.798;21.588;2023-05-27T14:18:20;100722.15;;;22.31;19.40
57791;BME280;43621;51.798;21.588;2023-05-27T14:22:23;100715.05;;;22.23;19.46
57791;BME280;43621;51.798;21.588;2023-05-27T14:26:25;100710.64;;;22.16;19.72
57791;BME280;43621;51.798;21.588;2023-05-27T14:30:27;100712.35;;;22.05;19.79
57791;BME280;43621;51.798;21.588;2023-05-27T14:34:31;100709.48;;;21.96;19.86
57791;BME280;43621;51.798;21.588;2023-05-27T14:38:33;100709.37;;;21.90;20.26
57791;BME280;43621;51.798;21.588;2023-05-27T14:42:35;100707.05;;;21.75;20.17
57791;BME280;43621;51.798;21.588;2023-05-27T14:46:37;100705.42;;;21.70;20.66
57791;BME280;43621;51.798;21.588;2023-05-27T14:50:39;100704.09;;;21.65;20.80
57791;BME280;43621;51.798;21.588;2023-05-27T14:54:41;100703.74;;;21.69;21.04
57791;BME280;43621;51.798;21.588;2023-05-27T14:58:43;100702.95;;;21.73;21.08
57791;BME280;43621;51.798;21.588;2023-05-27T15:02:46;100699.36;;;21.70;21.34
57791;BME280;43621;51.798;21.588;2023-05-27T15:06:48;100689.83;;;21.62;21.37
57791;BME280;43621;51.798;21.588;2023-05-27T15:10:50;100692.95;;;21.55;21.67
57791;BME280;43621;51.798;21.588;2023-05-27T15:14:52;100691.31;;;21.51;21.61
57791;BME280;43621;51.798;21.588;2023-05-27T15:18:54;100685.40;;;21.43;21.69
57791;BME280;43621;51.798;21.588;2023-05-27T15:22:56;100689.92;;;21.27;21.71
57791;BME280;43621;51.798;21.588;2023-05-27T15:26:59;100687.86;;;21.08;21.89
57791;BME280;43621;51.798;21.588;2023-05-27T15:31:01;100683.70;;;20.96;22.11
57791;BME280;43621;51.798;21.588;2023-05-27T15:35:03;100684.11;;;20.84;22.14
57791;BME280;43621;51.798;21.588;2023-05-27T15:39:07;100678.61;;;20.72;22.38
57791;BME280;43621;51.798;21.588;2023-05-27T15:43:08;100680.17;;;20.65;22.50
57791;BME280;43621;51.798;21.588;2023-05-27T15:47:10;100678.66;;;20.62;22.44
57791;BME280;43621;51.798;21.588;2023-05-27T15:51:12;100678.84;;;20.56;22.64
57791;BME280;43621;51.798;21.588;2023-05-27T15:55:14;100678.60;;;20.42;22.71
57791;BME280;43621;51.798;21.588;2023-05-27T15:59:16;100676.66;;;20.26;22.81
57791;BME280;43621;51.798;21.588;2023-05-27T16:03:17;100669.63;;;20.12;22.81
57791;BME280;43621;51.798;21.588;2023-05-27T16:07:20;100669.15;;;20.04;22.89
57791;BME280;43621;51.798;21.588;2023-05-27T16:11:21;100670.48;;;19.94;22.94
57791;BME280;43621;51.798;21.588;2023-05-27T16:15:24;100670.63;;;19.87;23.16
57791;BME280;43621;51.798;21.588;2023-05-27T16:19:26;100664.23;;;19.79;23.25
57791;BME280;43621;51.798;21.588;2023-05-27T16:23:28;100667.44;;;19.66;23.28
57791;BME280;43621;51.798;21.588;2023-05-27T16:27:30;100662.69;;;19.54;23.48
57791;BME280;43621;51.798;21.588;2023-05-27T16:31:33;100659.05;;;19.44;23.52
57791;BME280;43621;51.798;21.588;2023-05-27T16:35:34;100658.06;;;19.33;23.59
57791;BME280;43621;51.798;21.588;2023-05-27T16:39:36;100661.02;;;19.24;23.64
57791;BME280;43621;51.798;21.588;2023-05-27T16:43:38;100662.30;;;19.18;23.68
57791;BME280;43621;51.798;21.588;2023-05-27T16:47:40;100663.75;;;19.08;23.84
57791;BME280;43621;51.798;21.588;2023-05-27T16:51:41;100663.02;;;19.00;24.05
57791;BME280;43621;51.798;21.588;2023-05-27T16:55:43;100657.48;;;18.88;24.26
57791;BME280;43621;51.798;21.588;2023-05-27T16:59:47;100658.37;;;18.79;24.39
57791;BME280;43621;51.798;21.588;2023-05-27T17:03:49;100659.78;;;18.73;24.58
57791;BME280;43621;51.798;21.588;2023-05-27T17:07:51;100663.23;;;18.67;24.78
57791;BME280;43621;51.798;21.588;2023-05-27T17:11:52;100661.70;;;18.61;24.94
57791;BME280;43621;51.798;21.588;2023-05-27T17:15:55;100668.09;;;18.52;25.15
57791;BME280;43621;51.798;21.588;2023-05-27T17:19:57;100664.27;;;18.43;25.30
57791;BME280;43621;51.798;21.588;2023-05-27T17:23:59;100664.80;;;18.33;25.47
57791;BME280;43621;51.798;21.588;2023-05-27T17:28:00;100667.86;;;18.22;25.57
57791;BME280;43621;51.798;21.588;2023-05-27T17:32:03;100670.76;;;18.11;25.84
57791;BME280;43621;51.798;21.588;2023-05-27T17:36:05;100670.87;;;18.00;26.05
57791;BME280;43621;51.798;21.588;2023-05-27T17:40:08;100668.30;;;17.88;26.21
57791;BME280;43621;51.798;21.588;2023-05-27T17:44:10;100671.41;;;17.76;26.33
57791;BME280;43621;51.798;21.588;2023-05-27T17:48:12;100676.52;;;17.63;26.60
57791;BME280;43621;51.798;21.588;2023-05-27T17:52:15;100676.88;;;17.49;26.81
57791;BME280;43621;51.798;21.588;2023-05-27T17:56:17;100678.77;;;17.36;27.06
57791;BME280;43621;51.798;21.588;2023-05-27T18:00:19;100681.30;;;17.24;27.25
57791;BME280;43621;51.798;21.588;2023-05-27T18:04:21;100679.59;;;17.13;27.60
57791;BME280;43621;51.798;21.588;2023-05-27T18:08:23;100684.27;;;17.02;27.91
57791;BME280;43621;51.798;21.588;2023-05-27T18:12:25;100685.86;;;16.89;28.16
57791;BME280;43621;51.798;21.588;2023-05-27T18:16:27;100685.33;;;16.74;28.42
57791;BME280;43621;51.798;21.588;2023-05-27T18:20:28;100689.38;;;16.59;28.72
57791;BME280;43621;51.798;21.588;2023-05-27T18:24:31;100690.02;;;16.43;29.07
57791;BME280;43621;51.798;21.588;2023-05-27T18:28:33;100692.40;;;16.23;29.38
57791;BME280;43621;51.798;21.588;2023-05-27T18:32:45;100690.80;;;16.01;29.82
57791;BME280;43621;51.798;21.588;2023-05-27T18:36:48;100689.38;;;15.78;30.27
57791;BME280;43621;51.798;21.588;2023-05-27T18:40:50;100693.67;;;15.57;30.70
57791;BME280;43621;51.798;21.588;2023-05-27T18:44:52;100694.33;;;15.37;31.12
57791;BME280;43621;51.798;21.588;2023-05-27T18:48:53;100698.19;;;15.16;31.46
57791;BME280;43621;51.798;21.588;2023-05-27T18:52:55;100708.52;;;15.00;31.79
57791;BME280;43621;51.798;21.588;2023-05-27T18:56:57;100712.35;;;14.83;32.13
57791;BME280;43621;51.798;21.588;2023-05-27T19:00:59;100714.70;;;14.68;32.30
57791;BME280;43621;51.798;21.588;2023-05-27T19:05:02;100723.32;;;14.54;32.71
57791;BME280;43621;51.798;21.588;2023-05-27T19:09:04;100727.05;;;14.40;33.08
57791;BME280;43621;51.798;21.588;2023-05-27T19:13:06;100728.00;;;14.26;33.37
57791;BME280;43621;51.798;21.588;2023-05-27T19:17:07;100730.71;;;14.12;33.62
57791;BME280;43621;51.798;21.588;2023-05-27T19:21:09;100732.38;;;13.99;33.92
57791;BME280;43621;51.798;21.588;2023-05-27T19:25:12;100733.29;;;13.83;34.31
57791;BME280;43621;51.798;21.588;2023-05-27T19:29:14;100737.86;;;13.70;34.53
57791;BME280;43621;51.798;21.588;2023-05-27T19:33:16;100739.38;;;13.57;34.95
57791;BME280;43621;51.798;21.588;2023-05-27T19:37:18;100739.91;;;13.48;35.17
57791;BME280;43621;51.798;21.588;2023-05-27T19:41:20;100740.27;;;13.36;35.35
57791;BME280;43621;51.798;21.588;2023-05-27T19:45:21;100744.20;;;13.26;35.57
57791;BME280;43621;51.798;21.588;2023-05-27T19:49:23;100740.85;;;13.14;35.83
57791;BME280;43621;51.798;21.588;2023-05-27T19:53:29;100740.94;;;13.01;36.18
57791;BME280;43621;51.798;21.588;2023-05-27T19:57:34;100742.09;;;12.90;36.38
57791;BME280;43621;51.798;21.588;2023-05-27T20:01:36;100741.39;;;12.82;36.34
57791;BME280;43621;51.798;21.588;2023-05-27T20:05:38;100738.89;;;12.75;36.67
57791;BME280;43621;51.798;21.588;2023-05-27T20:09:39;100737.91;;;12.68;37.00
57791;BME280;43621;51.798;21.588;2023-05-27T20:13:41;100736.65;;;12.63;37.16
57791;BME280;43621;51.798;21.588;2023-05-27T20:17:43;100736.88;;;12.54;37.38
57791;BME280;43621;51.798;21.588;2023-05-27T20:21:45;100736.50;;;12.46;37.61
57791;BME280;43621;51.798;21.588;2023-05-27T20:25:48;100734.63;;;12.34;37.88
57791;BME280;43621;51.798;21.588;2023-05-27T20:29:50;100735.23;;;12.23;38.19
57791;BME280;43621;51.798;21.588;2023-05-27T20:33:52;100731.77;;;12.15;38.44
57791;BME280;43621;51.798;21.588;2023-05-27T20:37:54;100731.62;;;12.06;38.83
57791;BME280;43621;51.798;21.588;2023-05-27T20:41:56;100734.05;;;11.98;39.07
57791;BME280;43621;51.798;21.588;2023-05-27T20:45:58;100733.55;;;11.92;39.20
57791;BME280;43621;51.798;21.588;2023-05-27T20:50:00;100732.30;;;11.86;39.27
57791;BME280;43621;51.798;21.588;2023-05-27T20:54:02;100731.48;;;11.79;39.38
57791;BME280;43621;51.798;21.588;2023-05-27T20:58:04;100732.99;;;11.71;39.45